createdAt,value
2023-04-08T00:00:18.098Z,21.28
2023-04-08T00:01:23.597Z,21.27
2023-04-08T00:02:29.153Z,21.26
2023-04-08T00:03:35.220Z,21.27
2023-04-08T00:04:41.145Z,21.28
2023-04-08T00:05:46.777Z,21.27
2023-04-08T00:06:52.142Z,21.26
2023-04-08T00:07:57.493Z,21.25
2023-04-08T00:09:02.935Z,21.25
2023-04-08T00:10:08.288Z,21.26
2023-04-08T00:11:13.663Z,21.26
2023-04-08T00:12:19.068Z,21.25
2023-04-08T00:13:24.465Z,21.28
2023-04-08T00:14:29.873Z,21.27
2023-04-08T00:15:35.265Z,21.3
2023-04-08T00:16:40.662Z,21.28
2023-04-08T00:17:46.167Z,21.28
2023-04-08T00:18:52.039Z,21.26
2023-04-08T00:19:57.498Z,21.23
2023-04-08T00:21:02.908Z,21.23
2023-04-08T00:22:08.407Z,21.25
2023-04-08T00:23:13.760Z,21.26
2023-04-08T00:24:19.197Z,21.26
2023-04-08T00:25:25.479Z,21.27
2023-04-08T00:26:31.220Z,21.25
2023-04-08T00:27:36.585Z,21.24
2023-04-08T00:28:41.977Z,21.25
2023-04-08T00:29:47.402Z,21.25
2023-04-08T00:30:52.834Z,21.25
2023-04-08T00:31:58.343Z,21.23
2023-04-08T00:33:03.788Z,21.23
2023-04-08T00:34:09.289Z,21.24
2023-04-08T00:35:14.938Z,21.24
2023-04-08T00:36:20.448Z,21.21
2023-04-08T00:37:25.813Z,21.22
2023-04-08T00:38:31.278Z,21.23
2023-04-08T00:39:36.727Z,21.23
2023-04-08T00:40:42.112Z,21.23
2023-04-08T00:41:47.483Z,21.23
2023-04-08T00:42:52.852Z,21.22
2023-04-08T00:43:58.256Z,21.23
2023-04-08T00:45:03.663Z,21.2
2023-04-08T00:46:09.022Z,21.19
2023-04-08T00:47:14.528Z,21.2
2023-04-08T00:48:19.885Z,21.2
2023-04-08T00:49:25.302Z,21.2
2023-04-08T00:50:30.681Z,21.21
2023-04-08T00:51:36.078Z,21.2
2023-04-08T00:52:41.505Z,21.19
2023-04-08T00:53:46.877Z,21.19
2023-04-08T00:54:52.287Z,21.18
2023-04-08T00:55:57.658Z,21.2
2023-04-08T00:57:03.036Z,21.21
2023-04-08T00:58:08.425Z,21.19
2023-04-08T00:59:13.797Z,21.19
2023-04-08T01:00:19.199Z,21.18
2023-04-08T01:01:24.681Z,21.18
2023-04-08T01:02:30.392Z,21.2
2023-04-08T01:03:36.591Z,21.2
2023-04-08T01:04:42.305Z,21.2
2023-04-08T01:05:47.677Z,21.2
2023-04-08T01:06:53.071Z,21.2
2023-04-08T01:07:58.436Z,21.19
2023-04-08T01:09:03.771Z,21.22
2023-04-08T01:10:09.132Z,21.21
2023-04-08T01:11:14.535Z,21.2
2023-04-08T01:12:19.890Z,21.19
2023-04-08T01:13:25.268Z,21.15
2023-04-08T01:14:30.846Z,21.16
2023-04-08T01:15:36.223Z,21.18
2023-04-08T01:16:41.769Z,21.17
2023-04-08T01:17:47.149Z,21.14
2023-04-08T01:18:52.676Z,21.14
2023-04-08T01:19:58.101Z,21.13
2023-04-08T01:21:03.478Z,21.12
2023-04-08T01:22:08.941Z,21.13
2023-04-08T01:23:14.280Z,21.12
2023-04-08T01:24:19.648Z,21.14
2023-04-08T01:25:27.400Z,21.13
2023-04-08T01:26:32.870Z,21.14
2023-04-08T01:27:38.253Z,21.17
2023-04-08T01:28:43.620Z,21.16
2023-04-08T01:29:49.046Z,21.17
2023-04-08T01:30:54.438Z,21.18
2023-04-08T01:31:59.895Z,21.14
2023-04-08T01:33:05.329Z,21.15
2023-04-08T01:34:10.781Z,21.15
2023-04-08T01:35:16.159Z,21.17
2023-04-08T01:36:21.659Z,21.14
2023-04-08T01:37:27.110Z,21.13
2023-04-08T01:38:32.497Z,21.14
2023-04-08T01:39:37.891Z,21.15
2023-04-08T01:40:43.308Z,21.17
2023-04-08T01:41:48.661Z,21.15
2023-04-08T01:42:54.029Z,21.12
2023-04-08T01:43:59.420Z,21.14
2023-04-08T01:45:04.816Z,21.16
2023-04-08T01:46:10.236Z,21.17
2023-04-08T01:47:15.778Z,21.18
2023-04-08T01:48:21.146Z,21.14
2023-04-08T01:49:26.517Z,21.14
2023-04-08T01:50:31.905Z,21.14
2023-04-08T01:51:37.716Z,21.11
2023-04-08T01:52:43.759Z,21.11
2023-04-08T01:53:49.118Z,21.11
2023-04-08T01:54:54.510Z,21.14
2023-04-08T01:55:59.869Z,21.09
2023-04-08T01:57:05.230Z,21.1
2023-04-08T01:58:10.633Z,21.11
2023-04-08T01:59:15.969Z,21.1
2023-04-08T02:00:21.329Z,21.1
2023-04-08T02:01:26.681Z,21.11
2023-04-08T02:02:32.573Z,21.11
2023-04-08T02:03:38.566Z,21.13
2023-04-08T02:04:44.538Z,21.08
2023-04-08T02:05:50.208Z,21.06
2023-04-08T02:06:55.615Z,21.07
2023-04-08T02:08:00.987Z,21.07
2023-04-08T02:09:06.374Z,21.07
2023-04-08T02:10:11.747Z,21.08
2023-04-08T02:11:17.140Z,21.08
2023-04-08T02:12:22.518Z,21.07
2023-04-08T02:13:30.959Z,21.1
2023-04-08T02:14:36.332Z,21.08
2023-04-08T02:15:41.691Z,21.07
2023-04-08T02:16:47.158Z,21.07
2023-04-08T02:17:52.841Z,21.1
2023-04-08T02:18:58.536Z,21.08
2023-04-08T02:20:03.913Z,21.1
2023-04-08T02:21:09.396Z,21.07
2023-04-08T02:22:14.758Z,21.06
2023-04-08T02:23:20.165Z,21.07
2023-04-08T02:24:25.567Z,21.08
2023-04-08T02:25:30.943Z,21.07
2023-04-08T02:26:36.335Z,21.08
2023-04-08T02:27:41.698Z,21.09
2023-04-08T02:28:47.128Z,21.1
2023-04-08T02:29:53.329Z,21.06
2023-04-08T02:30:58.663Z,21.08
2023-04-08T02:32:04.029Z,21.04
2023-04-08T02:33:09.475Z,21.04
2023-04-08T02:34:14.975Z,21.04
2023-04-08T02:35:20.363Z,21.06
2023-04-08T02:36:25.835Z,21.07
2023-04-08T02:37:31.277Z,21.09
2023-04-08T02:38:36.674Z,21.09
2023-04-08T02:39:42.066Z,21.08
2023-04-08T02:40:47.450Z,21.07
2023-04-08T02:41:52.827Z,21.03
2023-04-08T02:42:58.187Z,21.03
2023-04-08T02:44:03.547Z,20.99
2023-04-08T02:45:08.969Z,21.02
2023-04-08T02:46:14.409Z,21.05
2023-04-08T02:47:20.171Z,21.03
2023-04-08T02:48:25.719Z,21.02
2023-04-08T02:49:31.093Z,20.99
2023-04-08T02:50:36.460Z,21
2023-04-08T02:51:41.869Z,21
2023-04-08T02:52:47.236Z,21.03
2023-04-08T02:53:52.612Z,21.02
2023-04-08T02:54:58.009Z,21.01
2023-04-08T02:56:03.385Z,21.02
2023-04-08T02:57:08.791Z,21.04
2023-04-08T02:58:14.145Z,21.05
2023-04-08T02:59:19.538Z,21.06
2023-04-08T03:00:24.913Z,21.05
2023-04-08T03:01:30.560Z,21.04
2023-04-08T03:02:36.552Z,21.04
2023-04-08T03:03:42.644Z,21.01
2023-04-08T03:04:48.563Z,21
2023-04-08T03:05:53.919Z,20.97
2023-04-08T03:06:59.313Z,20.99
2023-04-08T03:08:04.729Z,20.99
2023-04-08T03:09:10.128Z,20.99
2023-04-08T03:10:15.480Z,21.01
2023-04-08T03:11:20.855Z,20.99
2023-04-08T03:12:26.240Z,20.97
2023-04-08T03:13:31.614Z,20.97
2023-04-08T03:14:37.030Z,20.94
2023-04-08T03:15:42.412Z,20.92
2023-04-08T03:16:47.790Z,20.92
2023-04-08T03:17:53.409Z,20.93
2023-04-08T03:18:58.988Z,20.95
2023-04-08T03:20:04.393Z,20.95
2023-04-08T03:21:09.825Z,20.98
2023-04-08T03:22:15.182Z,20.99
2023-04-08T03:23:20.586Z,20.99
2023-04-08T03:24:26.039Z,21.02
2023-04-08T03:25:31.449Z,21.01
2023-04-08T03:26:36.868Z,20.98
2023-04-08T03:27:42.211Z,20.97
2023-04-08T03:28:48.018Z,20.98
2023-04-08T03:29:54.667Z,20.93
2023-04-08T03:31:00.127Z,20.93
2023-04-08T03:32:05.578Z,20.9
2023-04-08T03:33:11.282Z,20.93
2023-04-08T03:34:16.872Z,20.93
2023-04-08T03:35:22.322Z,20.92
2023-04-08T03:36:27.900Z,20.92
2023-04-08T03:37:33.711Z,20.94
2023-04-08T03:38:39.101Z,20.93
2023-04-08T03:39:44.482Z,20.89
2023-04-08T03:40:49.868Z,20.92
2023-04-08T03:41:55.277Z,20.92
2023-04-08T03:43:00.638Z,20.91
2023-04-08T03:44:06.082Z,20.9
2023-04-08T03:45:11.487Z,20.92
2023-04-08T03:46:16.859Z,20.92
2023-04-08T03:47:22.471Z,20.93
2023-04-08T03:48:27.997Z,20.91
2023-04-08T03:49:33.358Z,20.92
2023-04-08T03:50:38.772Z,20.92
2023-04-08T03:51:44.147Z,20.89
2023-04-08T03:52:49.570Z,20.9
2023-04-08T03:53:54.967Z,20.9
2023-04-08T03:55:00.338Z,20.89
2023-04-08T03:56:05.797Z,20.9
2023-04-08T03:57:11.190Z,20.89
2023-04-08T03:58:16.554Z,20.91
2023-04-08T03:59:21.920Z,20.91
2023-04-08T04:00:27.299Z,20.92
2023-04-08T04:01:32.721Z,20.93
2023-04-08T04:02:38.268Z,20.93
2023-04-08T04:03:44.194Z,20.89
2023-04-08T04:04:50.452Z,20.9
2023-04-08T04:05:56.073Z,20.94
2023-04-08T04:07:01.482Z,21.04
2023-04-08T04:08:06.923Z,21.12
2023-04-08T04:09:12.346Z,21.17
2023-04-08T04:10:17.687Z,21.28
2023-04-08T04:11:23.130Z,21.41
2023-04-08T04:12:28.491Z,21.51
2023-04-08T04:13:33.983Z,21.63
2023-04-08T04:14:39.412Z,21.74
2023-04-08T04:15:44.851Z,21.84
2023-04-08T04:16:50.376Z,21.93
2023-04-08T04:17:55.734Z,22.03
2023-04-08T04:19:01.340Z,22.1
2023-04-08T04:20:06.899Z,22.14
2023-04-08T04:21:12.279Z,22.18
2023-04-08T04:22:17.687Z,22.2
2023-04-08T04:23:23.084Z,22.22
2023-04-08T04:24:28.463Z,22.24
2023-04-08T04:25:33.874Z,22.3
2023-04-08T04:26:39.263Z,22.34
2023-04-08T04:27:44.792Z,22.37
2023-04-08T04:28:50.334Z,22.4
2023-04-08T04:29:56.147Z,22.41
2023-04-08T04:31:01.538Z,22.43
2023-04-08T04:32:07.070Z,22.45
2023-04-08T04:33:12.418Z,22.47
2023-04-08T04:34:17.832Z,22.46
2023-04-08T04:35:23.246Z,22.47
2023-04-08T04:36:28.733Z,22.49
2023-04-08T04:37:34.107Z,22.5
2023-04-08T04:38:39.526Z,22.47
2023-04-08T04:39:44.874Z,22.5
2023-04-08T04:40:50.269Z,22.51
2023-04-08T04:41:55.640Z,22.52
2023-04-08T04:43:01.040Z,22.52
2023-04-08T04:44:06.457Z,22.52
2023-04-08T04:45:11.844Z,22.51
2023-04-08T04:46:17.303Z,22.53
2023-04-08T04:47:22.935Z,22.53
2023-04-08T04:48:28.400Z,22.54
2023-04-08T04:49:33.769Z,22.54
2023-04-08T04:50:39.152Z,22.53
2023-04-08T04:51:44.550Z,22.52
2023-04-08T04:52:49.933Z,22.49
2023-04-08T04:53:55.399Z,22.48
2023-04-08T04:55:00.769Z,22.44
2023-04-08T04:56:06.154Z,22.43
2023-04-08T04:57:11.578Z,22.41
2023-04-08T04:58:16.929Z,22.37
2023-04-08T04:59:22.391Z,22.34
2023-04-08T05:00:27.769Z,22.34
2023-04-08T05:01:33.153Z,22.31
2023-04-08T05:02:39.662Z,22.28
2023-04-08T05:03:45.491Z,22.29
2023-04-08T05:04:51.053Z,22.25
2023-04-08T05:05:57.483Z,22.22
2023-04-08T05:07:02.952Z,22.21
2023-04-08T05:08:08.347Z,22.18
2023-04-08T05:09:13.712Z,22.15
2023-04-08T05:10:19.066Z,22.13
2023-04-08T05:11:24.461Z,22.12
2023-04-08T05:12:29.837Z,22.1
2023-04-08T05:13:35.232Z,22.08
2023-04-08T05:14:40.577Z,22.07
2023-04-08T05:15:46.226Z,22.04
2023-04-08T05:16:52.067Z,22.05
2023-04-08T05:17:57.450Z,22.03
2023-04-08T05:19:03.082Z,22.01
2023-04-08T05:20:08.442Z,21.99
2023-04-08T05:21:13.867Z,21.96
2023-04-08T05:22:19.228Z,21.97
2023-04-08T05:23:24.604Z,21.96
2023-04-08T05:24:29.991Z,21.96
2023-04-08T05:25:35.367Z,21.95
2023-04-08T05:26:40.768Z,21.95
2023-04-08T05:27:46.187Z,21.93
2023-04-08T05:28:52.238Z,21.94
2023-04-08T05:29:57.759Z,21.93
2023-04-08T05:31:03.116Z,21.92
2023-04-08T05:32:08.621Z,21.92
2023-04-08T05:33:13.977Z,21.91
2023-04-08T05:34:19.436Z,21.92
2023-04-08T05:35:24.861Z,21.91
2023-04-08T05:36:30.303Z,21.9
2023-04-08T05:37:35.686Z,21.89
2023-04-08T05:38:41.033Z,21.89
2023-04-08T05:39:46.427Z,21.89
2023-04-08T05:40:51.801Z,21.89
2023-04-08T05:41:57.162Z,21.91
2023-04-08T05:43:02.564Z,21.91
2023-04-08T05:44:07.952Z,21.94
2023-04-08T05:45:13.340Z,21.94
2023-04-08T05:46:18.732Z,21.95
2023-04-08T05:47:24.250Z,21.95
2023-04-08T05:48:29.708Z,21.96
2023-04-08T05:49:35.076Z,21.95
2023-04-08T05:50:40.504Z,21.96
2023-04-08T05:51:46.338Z,21.96
2023-04-08T05:52:51.710Z,21.94
2023-04-08T05:53:57.199Z,21.93
2023-04-08T05:55:02.539Z,21.94
2023-04-08T05:56:07.990Z,21.92
2023-04-08T05:57:13.400Z,21.91
2023-04-08T05:58:18.738Z,21.91
2023-04-08T05:59:24.186Z,21.91
2023-04-08T06:00:29.550Z,21.9
2023-04-08T06:01:35.039Z,21.89
2023-04-08T06:02:40.749Z,21.88
2023-04-08T06:03:46.847Z,21.87
2023-04-08T06:04:53.605Z,21.87
2023-04-08T06:05:59.202Z,21.87
2023-04-08T06:07:04.576Z,21.87
2023-04-08T06:08:09.909Z,21.86
2023-04-08T06:09:15.298Z,21.84
2023-04-08T06:10:20.684Z,21.84
2023-04-08T06:11:26.068Z,21.83
2023-04-08T06:12:31.454Z,21.84
2023-04-08T06:13:36.794Z,21.83
2023-04-08T06:14:42.170Z,21.81
2023-04-08T06:15:47.543Z,21.82
2023-04-08T06:16:52.966Z,21.81
2023-04-08T06:17:58.476Z,21.82
2023-04-08T06:19:03.988Z,21.81
2023-04-08T06:20:11.655Z,21.78
2023-04-08T06:21:17.052Z,21.78
2023-04-08T06:22:22.435Z,21.78
2023-04-08T06:23:27.826Z,21.79
2023-04-08T06:24:33.281Z,21.79
2023-04-08T06:25:38.674Z,21.78
2023-04-08T06:26:44.093Z,21.77
2023-04-08T06:27:49.459Z,21.76
2023-04-08T06:28:54.815Z,21.74
2023-04-08T06:30:00.301Z,21.74
2023-04-08T06:31:05.803Z,21.73
2023-04-08T06:32:11.208Z,21.76
2023-04-08T06:33:16.692Z,21.76
2023-04-08T06:34:22.059Z,21.78
2023-04-08T06:35:28.340Z,21.79
2023-04-08T06:36:35.362Z,21.85
2023-04-08T06:37:40.726Z,21.91
2023-04-08T06:38:46.065Z,21.93
2023-04-08T06:39:51.787Z,21.97
2023-04-08T06:40:57.143Z,22.02
2023-04-08T06:42:02.556Z,22.06
2023-04-08T06:43:07.942Z,22.1
2023-04-08T06:44:13.301Z,22.18
2023-04-08T06:45:18.678Z,22.22
2023-04-08T06:46:24.125Z,22.25
2023-04-08T06:47:29.652Z,22.3
2023-04-08T06:48:35.294Z,22.34
2023-04-08T06:49:40.700Z,22.4
2023-04-08T06:50:46.088Z,22.44
2023-04-08T06:51:51.453Z,22.47
2023-04-08T06:52:56.854Z,22.51
2023-04-08T06:54:02.262Z,22.53
2023-04-08T06:55:07.668Z,22.55
2023-04-08T06:56:13.060Z,22.53
2023-04-08T06:57:18.461Z,22.51
2023-04-08T06:58:24.881Z,22.5
2023-04-08T06:59:30.257Z,22.51
2023-04-08T07:00:35.632Z,22.49
2023-04-08T07:01:41.092Z,22.49
2023-04-08T07:02:46.864Z,22.48
2023-04-08T07:03:52.793Z,22.45
2023-04-08T07:04:58.566Z,22.44
2023-04-08T07:06:03.943Z,22.42
2023-04-08T07:07:09.305Z,22.41
2023-04-08T07:08:14.726Z,22.39
2023-04-08T07:09:20.091Z,22.38
2023-04-08T07:10:25.464Z,22.35
2023-04-08T07:11:30.831Z,22.34
2023-04-08T07:12:36.195Z,22.33
2023-04-08T07:13:41.661Z,22.36
2023-04-08T07:14:47.051Z,22.35
2023-04-08T07:15:52.479Z,22.32
2023-04-08T07:16:57.876Z,22.26
2023-04-08T07:18:03.548Z,22.27
2023-04-08T07:19:09.104Z,22.31
2023-04-08T07:20:14.485Z,22.26
2023-04-08T07:21:19.877Z,22.21
2023-04-08T07:22:25.252Z,22.17
2023-04-08T07:23:30.634Z,22.13
2023-04-08T07:24:36.020Z,22.09
2023-04-08T07:25:41.385Z,22.04
2023-04-08T07:26:46.770Z,22.01
2023-04-08T07:27:52.152Z,21.99
2023-04-08T07:28:57.593Z,21.95
2023-04-08T07:30:03.236Z,21.92
2023-04-08T07:31:08.686Z,21.91
2023-04-08T07:32:14.307Z,21.91
2023-04-08T07:33:19.697Z,21.89
2023-04-08T07:34:25.043Z,21.87
2023-04-08T07:35:30.475Z,21.87
2023-04-08T07:36:35.982Z,21.86
2023-04-08T07:37:41.368Z,21.86
2023-04-08T07:38:46.760Z,21.86
2023-04-08T07:39:52.670Z,21.88
2023-04-08T07:40:58.026Z,21.87
2023-04-08T07:42:03.376Z,21.88
2023-04-08T07:43:08.749Z,21.88
2023-04-08T07:44:14.123Z,21.86
2023-04-08T07:45:19.487Z,21.83
2023-04-08T07:46:24.987Z,21.84
2023-04-08T07:47:30.544Z,21.84
2023-04-08T07:48:37.006Z,21.82
2023-04-08T07:49:42.375Z,21.8
2023-04-08T07:51:07.798Z,21.84
2023-04-08T07:52:15.640Z,21.82
2023-04-08T07:53:23.801Z,21.79
2023-04-08T07:54:29.356Z,21.82
2023-04-08T07:55:34.729Z,21.81
2023-04-08T07:56:40.145Z,21.82
2023-04-08T07:57:45.742Z,21.82
2023-04-08T07:58:52.835Z,21.83
2023-04-08T07:59:59.550Z,21.82
2023-04-08T08:01:04.940Z,21.81
2023-04-08T08:02:10.346Z,21.83
2023-04-08T08:03:16.061Z,21.8
2023-04-08T08:04:21.815Z,21.78
2023-04-08T08:05:28.150Z,21.77
2023-04-08T08:06:33.543Z,21.77
2023-04-08T08:07:38.949Z,21.78
2023-04-08T08:08:44.368Z,21.78
2023-04-08T08:09:49.947Z,21.79
2023-04-08T08:10:55.316Z,21.8
2023-04-08T08:12:00.685Z,21.78
2023-04-08T08:13:06.061Z,21.78
2023-04-08T08:14:11.447Z,21.76
2023-04-08T08:15:16.832Z,21.8
2023-04-08T08:16:22.310Z,21.84
2023-04-08T08:17:28.230Z,21.83
2023-04-08T08:18:34.776Z,21.83
2023-04-08T08:19:40.165Z,21.84
2023-04-08T08:20:45.542Z,21.85
2023-04-08T08:21:50.939Z,21.86
2023-04-08T08:22:57.786Z,21.9
2023-04-08T08:24:04.346Z,21.89
2023-04-08T08:25:09.740Z,21.92
2023-04-08T08:26:15.141Z,21.93
2023-04-08T08:27:20.572Z,21.92
2023-04-08T08:28:25.941Z,21.92
2023-04-08T08:29:31.372Z,21.93
2023-04-08T08:30:36.840Z,21.94
2023-04-08T08:31:42.257Z,21.94
2023-04-08T08:32:47.965Z,21.95
2023-04-08T08:33:53.423Z,21.96
2023-04-08T08:34:58.780Z,21.96
2023-04-08T08:36:04.185Z,21.96
2023-04-08T08:37:09.993Z,21.97
2023-04-08T08:38:15.425Z,22
2023-04-08T08:39:20.859Z,22.03
2023-04-08T08:40:26.239Z,22.06
2023-04-08T08:41:31.645Z,22.05
2023-04-08T08:42:37.043Z,22.07
2023-04-08T08:43:42.424Z,22.07
2023-04-08T08:44:47.856Z,22.07
2023-04-08T08:45:53.199Z,22.09
2023-04-08T08:46:58.780Z,22.1
2023-04-08T08:48:04.487Z,22.11
2023-04-08T08:49:10.010Z,22.12
2023-04-08T08:50:15.406Z,22.13
2023-04-08T08:51:20.779Z,22.11
2023-04-08T08:52:26.171Z,22.13
2023-04-08T08:53:33.612Z,22.12
2023-04-08T08:54:40.606Z,22.11
2023-04-08T08:56:13.393Z,22.14
2023-04-08T08:57:22.745Z,22.13
2023-04-08T08:58:28.168Z,22.14
2023-04-08T08:59:33.602Z,22.14
2023-04-08T09:00:39.013Z,22.14
2023-04-08T09:01:44.528Z,22.13
2023-04-08T09:02:50.231Z,22.16
2023-04-08T09:03:56.378Z,22.16
2023-04-08T09:05:02.330Z,22.16
2023-04-08T09:06:08.802Z,22.16
2023-04-08T09:07:16.860Z,22.17
2023-04-08T09:08:22.221Z,22.17
2023-04-08T09:09:27.591Z,22.16
2023-04-08T09:10:33.037Z,22.18
2023-04-08T09:11:38.422Z,22.18
2023-04-08T09:12:43.881Z,22.19
2023-04-08T09:13:49.549Z,22.21
2023-04-08T09:14:55.515Z,22.22
2023-04-08T09:16:00.925Z,22.22
2023-04-08T09:17:06.418Z,22.23
2023-04-08T09:18:11.800Z,22.22
2023-04-08T09:19:18.677Z,22.24
2023-04-08T09:20:24.136Z,22.27
2023-04-08T09:21:29.532Z,22.31
2023-04-08T09:22:34.912Z,22.34
2023-04-08T09:23:40.290Z,22.34
2023-04-08T09:24:45.681Z,22.37
2023-04-08T09:25:51.191Z,22.51
2023-04-08T09:26:56.681Z,22.53
2023-04-08T09:28:02.180Z,22.39
2023-04-08T09:29:18.700Z,22.31
2023-04-08T09:30:36.130Z,22.22
2023-04-08T09:31:41.607Z,22.19
2023-04-08T09:32:47.378Z,22.26
2023-04-08T09:33:53.071Z,22.35
2023-04-08T09:34:58.520Z,22.35
2023-04-08T09:36:03.938Z,22.32
2023-04-08T09:37:09.482Z,22.27
2023-04-08T09:38:14.851Z,22.26
2023-04-08T09:39:20.223Z,22.28
2023-04-08T09:40:25.592Z,22.3
2023-04-08T09:41:30.961Z,22.3
2023-04-08T09:42:38.680Z,22.31
2023-04-08T09:43:44.043Z,22.29
2023-04-08T09:44:49.393Z,22.26
2023-04-08T09:45:54.763Z,22.29
2023-04-08T09:47:02.621Z,22.3
2023-04-08T09:48:07.987Z,22.31
2023-04-08T09:49:13.356Z,22.33
2023-04-08T09:50:18.801Z,22.34
2023-04-08T09:51:24.206Z,22.37
2023-04-08T09:52:29.567Z,22.38
2023-04-08T09:53:34.946Z,22.38
2023-04-08T09:54:40.332Z,22.38
2023-04-08T09:55:45.695Z,22.37
2023-04-08T09:56:51.057Z,22.37
2023-04-08T09:57:56.448Z,22.39
2023-04-08T09:59:01.827Z,22.38
2023-04-08T10:00:09.562Z,22.38
2023-04-08T10:01:15.100Z,22.39
2023-04-08T10:02:20.537Z,22.39
2023-04-08T10:03:26.706Z,22.4
2023-04-08T10:04:32.997Z,22.4
2023-04-08T10:05:38.654Z,22.39
2023-04-08T10:06:44.040Z,22.39
2023-04-08T10:07:49.436Z,22.41
2023-04-08T10:08:54.816Z,22.4
2023-04-08T10:10:00.235Z,22.42
2023-04-08T10:11:05.671Z,22.42
2023-04-08T10:12:11.091Z,22.42
2023-04-08T10:13:16.446Z,22.43
2023-04-08T10:14:21.852Z,22.44
2023-04-08T10:15:27.240Z,22.45
2023-04-08T10:16:32.630Z,22.46
2023-04-08T10:17:38.128Z,22.45
2023-04-08T10:18:43.686Z,22.44
2023-04-08T10:19:49.073Z,22.45
2023-04-08T10:20:54.464Z,22.44
2023-04-08T10:21:59.824Z,22.44
2023-04-08T10:23:05.199Z,22.45
2023-04-08T10:24:10.575Z,22.45
2023-04-08T10:25:16.354Z,22.48
2023-04-08T10:26:22.037Z,22.48
2023-04-08T10:27:27.403Z,22.47
2023-04-08T10:28:32.798Z,22.46
2023-04-08T10:29:38.185Z,22.46
2023-04-08T10:30:43.709Z,22.45
2023-04-08T10:31:49.110Z,22.45
2023-04-08T10:32:54.616Z,22.46
2023-04-08T10:34:00.202Z,22.46
2023-04-08T10:35:05.605Z,22.47
2023-04-08T10:36:11.015Z,22.48
2023-04-08T10:37:16.550Z,22.47
2023-04-08T10:38:21.899Z,22.48
2023-04-08T10:39:27.343Z,22.48
2023-04-08T10:40:32.762Z,22.47
2023-04-08T10:41:38.123Z,22.49
2023-04-08T10:42:43.479Z,22.49
2023-04-08T10:43:49.121Z,22.49
2023-04-08T10:44:55.334Z,22.5
2023-04-08T10:46:00.696Z,22.51
2023-04-08T10:47:06.279Z,22.5
2023-04-08T10:48:11.643Z,22.5
2023-04-08T10:49:17.049Z,22.5
2023-04-08T10:50:22.417Z,22.5
2023-04-08T10:51:27.841Z,22.5
2023-04-08T10:52:35.758Z,22.52
2023-04-08T10:53:41.144Z,22.53
2023-04-08T10:54:46.497Z,22.53
2023-04-08T10:55:51.868Z,22.54
2023-04-08T10:56:57.283Z,22.54
2023-04-08T10:58:02.664Z,22.55
2023-04-08T10:59:08.015Z,22.57
2023-04-08T11:00:13.479Z,22.58
2023-04-08T11:01:18.908Z,22.59
2023-04-08T11:02:24.530Z,22.6
2023-04-08T11:03:30.406Z,22.6
2023-04-08T11:04:36.383Z,22.61
2023-04-08T11:05:42.118Z,22.62
2023-04-08T11:06:47.611Z,22.62
2023-04-08T11:07:53.030Z,22.64
2023-04-08T11:08:58.377Z,22.64
2023-04-08T11:10:03.786Z,22.67
2023-04-08T11:11:09.549Z,22.66
2023-04-08T11:12:15.221Z,22.67
2023-04-08T11:13:20.627Z,22.68
2023-04-08T11:14:25.961Z,22.72
2023-04-08T11:15:31.328Z,22.73
2023-04-08T11:16:36.812Z,22.74
2023-04-08T11:17:42.546Z,22.72
2023-04-08T11:18:48.251Z,22.69
2023-04-08T11:19:53.739Z,22.67
2023-04-08T11:21:00.296Z,22.68
2023-04-08T11:22:05.903Z,22.69
2023-04-08T11:23:11.249Z,22.68
2023-04-08T11:24:19.140Z,22.68
2023-04-08T11:25:24.503Z,22.66
2023-04-08T11:26:29.889Z,22.61
2023-04-08T11:27:35.274Z,22.62
2023-04-08T11:28:40.635Z,22.55
2023-04-08T11:29:46.008Z,22.53
2023-04-08T11:30:51.379Z,22.53
2023-04-08T11:31:56.834Z,22.53
2023-04-08T11:33:02.270Z,22.5
2023-04-08T11:34:07.875Z,22.46
2023-04-08T11:35:13.237Z,22.43
2023-04-08T11:36:18.614Z,22.39
2023-04-08T11:37:24.010Z,22.37
2023-04-08T11:38:32.256Z,22.36
2023-04-08T11:39:37.602Z,22.34
2023-04-08T11:40:42.942Z,22.31
2023-04-08T11:41:48.331Z,22.28
2023-04-08T11:42:53.714Z,22.26
2023-04-08T11:43:59.159Z,22.25
2023-04-08T11:45:04.541Z,22.22
2023-04-08T11:46:09.932Z,22.2
2023-04-08T11:47:15.586Z,22.17
2023-04-08T11:48:20.962Z,22.16
2023-04-08T11:49:26.424Z,22.15
2023-04-08T11:50:31.827Z,22.13
2023-04-08T11:51:37.191Z,22.12
2023-04-08T11:52:42.579Z,22.11
2023-04-08T11:53:48.074Z,22.11
2023-04-08T11:54:55.992Z,22.11
2023-04-08T11:56:01.343Z,22.1
2023-04-08T11:57:06.709Z,22.07
2023-04-08T11:58:12.307Z,22.08
2023-04-08T11:59:17.693Z,22.07
2023-04-08T12:00:23.104Z,22.05
2023-04-08T12:01:28.537Z,22.06
2023-04-08T12:02:34.124Z,22.06
2023-04-08T12:03:40.010Z,22.06
2023-04-08T12:04:46.027Z,22.05
2023-04-08T12:05:51.572Z,22.05
2023-04-08T12:06:58.242Z,22.05
2023-04-08T12:08:04.910Z,22.01
2023-04-08T12:09:10.386Z,21.97
2023-04-08T12:10:15.728Z,21.94
2023-04-08T12:11:21.103Z,21.94
2023-04-08T12:12:26.526Z,21.93
2023-04-08T12:13:31.916Z,21.91
2023-04-08T12:14:37.312Z,21.9
2023-04-08T12:15:42.738Z,21.9
2023-04-08T12:16:48.231Z,21.89
2023-04-08T12:17:53.680Z,21.88
2023-04-08T12:18:59.252Z,21.87
2023-04-08T12:20:04.637Z,21.86
2023-04-08T12:21:10.019Z,21.87
2023-04-08T12:22:15.420Z,21.86
2023-04-08T12:23:20.808Z,21.85
2023-04-08T12:24:26.217Z,21.83
2023-04-08T12:25:31.596Z,21.83
2023-04-08T12:26:37.002Z,21.82
2023-04-08T12:27:42.374Z,21.83
2023-04-08T12:28:47.742Z,21.83
2023-04-08T12:29:53.150Z,21.8
2023-04-08T12:30:58.510Z,21.81
2023-04-08T12:32:03.885Z,21.82
2023-04-08T12:33:09.285Z,21.81
2023-04-08T12:34:14.726Z,21.82
2023-04-08T12:35:20.083Z,21.81
2023-04-08T12:36:25.552Z,21.81
2023-04-08T12:37:31.348Z,21.83
2023-04-08T12:38:36.799Z,21.84
2023-04-08T12:39:42.149Z,21.84
2023-04-08T12:40:49.136Z,21.83
2023-04-08T12:41:55.539Z,21.82
2023-04-08T12:43:00.951Z,21.83
2023-04-08T12:44:06.325Z,21.83
2023-04-08T12:45:11.710Z,21.84
2023-04-08T12:46:17.098Z,21.82
2023-04-08T12:47:24.302Z,21.83
2023-04-08T12:48:31.752Z,21.81
2023-04-08T12:49:48.575Z,21.83
2023-04-08T12:50:54.644Z,21.8
2023-04-08T12:51:59.989Z,21.81
2023-04-08T12:53:05.361Z,21.81
2023-04-08T12:54:10.734Z,21.8
2023-04-08T12:55:16.086Z,21.8
2023-04-08T12:56:21.450Z,21.81
2023-04-08T12:57:26.979Z,21.84
2023-04-08T12:58:32.411Z,21.9
2023-04-08T12:59:37.816Z,21.88
2023-04-08T13:00:43.203Z,21.88
2023-04-08T13:01:48.729Z,21.88
2023-04-08T13:02:54.237Z,21.88
2023-04-08T13:03:59.985Z,21.86
2023-04-08T13:05:05.723Z,21.87
2023-04-08T13:06:11.082Z,21.87
2023-04-08T13:07:16.494Z,21.87
2023-04-08T13:08:21.915Z,21.86
2023-04-08T13:09:27.309Z,21.92
2023-04-08T13:10:32.668Z,21.95
2023-04-08T13:11:38.100Z,21.99
2023-04-08T13:12:43.921Z,22.03
2023-04-08T13:13:49.622Z,22.06
2023-04-08T13:14:55.000Z,22.1
2023-04-08T13:16:00.513Z,22.12
2023-04-08T13:17:06.111Z,22.14
2023-04-08T13:18:11.470Z,22.16
2023-04-08T13:19:16.920Z,22.17
2023-04-08T13:20:22.312Z,22.15
2023-04-08T13:21:27.667Z,22.15
2023-04-08T13:22:33.019Z,22.15
2023-04-08T13:23:38.382Z,22.14
2023-04-08T13:24:43.780Z,22.13
2023-04-08T13:25:49.135Z,22.15
2023-04-08T13:26:54.478Z,22.15
2023-04-08T13:27:59.838Z,22.16
2023-04-08T13:29:05.418Z,22.17
2023-04-08T13:30:10.957Z,22.18
2023-04-08T13:31:16.371Z,22.18
2023-04-08T13:32:21.843Z,22.19
2023-04-08T13:33:27.311Z,22.19
2023-04-08T13:34:32.666Z,22.18
2023-04-08T13:35:38.181Z,22.19
2023-04-08T13:36:44.094Z,22.18
2023-04-08T13:37:49.540Z,22.18
2023-04-08T13:38:55.337Z,22.19
2023-04-08T13:40:00.797Z,22.18
2023-04-08T13:41:08.746Z,22.18
2023-04-08T13:42:14.158Z,22.22
2023-04-08T13:43:19.677Z,22.22
2023-04-08T13:44:25.237Z,22.21
2023-04-08T13:45:31.153Z,22.22
2023-04-08T13:46:36.709Z,22.23
2023-04-08T13:47:42.178Z,22.23
2023-04-08T13:48:47.725Z,22.24
2023-04-08T13:49:55.803Z,22.25
2023-04-08T13:51:01.336Z,22.26
2023-04-08T13:52:07.810Z,22.27
2023-04-08T13:53:13.369Z,22.29
2023-04-08T13:54:21.583Z,22.29
2023-04-08T13:55:29.279Z,22.3
2023-04-08T13:56:34.800Z,22.31
2023-04-08T13:57:41.263Z,22.3
2023-04-08T13:58:52.526Z,22.31
2023-04-08T14:00:02.981Z,22.34
2023-04-08T14:01:08.430Z,22.35
2023-04-08T14:02:13.906Z,22.36
2023-04-08T14:03:19.492Z,22.38
2023-04-08T14:04:25.199Z,22.37
2023-04-08T14:05:30.713Z,22.34
2023-04-08T14:06:36.059Z,22.34
2023-04-08T14:07:41.432Z,22.33
2023-04-08T14:08:46.812Z,22.32